Forkton, Kentucky
Current Conditions -  °F | °C
As of 11:55 PM on Monday 26 Jan 2015 (Local Time) from KGLW Reporting Station
Haze Haze  
Wind Chill: 30°   Ceiling: 500
Heat Index: 30°   Visibility: 5mi
Dew Point: 30°   Wind: 0mph
Humidity: 100%   Direction: NA
Pressure: 29.92"   Gusts: NA
Location:  36.7279°N, 85.6843°W
Report Text: KGLW 270555Z AUTO 00000KT 5SM BR OVC005 M01/M01 A2992 RMK AO2 T10101010
Loading
Personal Weather Stations






























Interactive Weather Map New forecast layout! Learn more

10-Day Weather Forecast

Advertisements
Track Severe Weather on mobile